sensor_id;sensor_type;location;lat;lon;timestamp;P1;durP1;ratioP1;P2;durP2;ratioP2
50128;SDS011;36026;45.478;9.224;2023-04-23T00:02:46;18.92;;;14.85;;
50128;SDS011;36026;45.478;9.224;2023-04-23T00:05:49;21.65;;;15.65;;
50128;SDS011;36026;45.478;9.224;2023-04-23T00:08:53;20.27;;;14.73;;
50128;SDS011;36026;45.478;9.224;2023-04-23T00:11:55;22.02;;;15.10;;
50128;SDS011;36026;45.478;9.224;2023-04-23T00:14:59;24.30;;;15.43;;
50128;SDS011;36026;45.478;9.224;2023-04-23T00:18:01;19.77;;;15.23;;
50128;SDS011;36026;45.478;9.224;2023-04-23T00:21:03;21.40;;;15.55;;
50128;SDS011;36026;45.478;9.224;2023-04-23T00:24:05;21.73;;;15.15;;
50128;SDS011;36026;45.478;9.224;2023-04-23T00:27:07;19.55;;;14.98;;
50128;SDS011;36026;45.478;9.224;2023-04-23T00:30:10;23.58;;;14.90;;
50128;SDS011;36026;45.478;9.224;2023-04-23T00:33:12;19.92;;;15.20;;
50128;SDS011;36026;45.478;9.224;2023-04-23T00:36:14;20.02;;;15.70;;
50128;SDS011;36026;45.478;9.224;2023-04-23T00:39:16;21.63;;;15.88;;
50128;SDS011;36026;45.478;9.224;2023-04-23T00:42:17;21.58;;;15.80;;
50128;SDS011;36026;45.478;9.224;2023-04-23T00:45:20;20.23;;;14.50;;
50128;SDS011;36026;45.478;9.224;2023-04-23T00:48:22;24.27;;;16.30;;
50128;SDS011;36026;45.478;9.224;2023-04-23T00:51:24;21.65;;;16.10;;
50128;SDS011;36026;45.478;9.224;2023-04-23T00:54:26;24.42;;;16.50;;
50128;SDS011;36026;45.478;9.224;2023-04-23T00:57:27;23.55;;;16.42;;
50128;SDS011;36026;45.478;9.224;2023-04-23T01:00:31;26.85;;;17.42;;
50128;SDS011;36026;45.478;9.224;2023-04-23T01:03:34;30.42;;;17.80;;
50128;SDS011;36026;45.478;9.224;2023-04-23T01:06:36;25.83;;;15.53;;
50128;SDS011;36026;45.478;9.224;2023-04-23T01:09:38;23.40;;;15.65;;
50128;SDS011;36026;45.478;9.224;2023-04-23T01:12:40;20.05;;;15.55;;
50128;SDS011;36026;45.478;9.224;2023-04-23T01:15:43;21.35;;;16.17;;
50128;SDS011;36026;45.478;9.224;2023-04-23T01:18:45;20.90;;;15.35;;
50128;SDS011;36026;45.478;9.224;2023-04-23T01:21:46;19.52;;;15.65;;
50128;SDS011;36026;45.478;9.224;2023-04-23T01:24:51;22.48;;;15.38;;
50128;SDS011;36026;45.478;9.224;2023-04-23T01:27:53;20.02;;;14.60;;
50128;SDS011;36026;45.478;9.224;2023-04-23T01:30:54;18.25;;;13.68;;
50128;SDS011;36026;45.478;9.224;2023-04-23T01:33:56;29.33;;;16.02;;
50128;SDS011;36026;45.478;9.224;2023-04-23T01:36:59;22.48;;;14.93;;
50128;SDS011;36026;45.478;9.224;2023-04-23T01:40:02;22.35;;;15.30;;
50128;SDS011;36026;45.478;9.224;2023-04-23T01:43:05;20.27;;;15.85;;
50128;SDS011;36026;45.478;9.224;2023-04-23T01:46:08;23.88;;;16.50;;
50128;SDS011;36026;45.478;9.224;2023-04-23T01:49:10;19.98;;;15.95;;
50128;SDS011;36026;45.478;9.224;2023-04-23T01:52:12;19.42;;;15.45;;
50128;SDS011;36026;45.478;9.224;2023-04-23T01:55:15;19.65;;;14.60;;
50128;SDS011;36026;45.478;9.224;2023-04-23T01:58:18;18.58;;;13.68;;
50128;SDS011;36026;45.478;9.224;2023-04-23T02:01:20;11.85;;;8.75;;
50128;SDS011;36026;45.478;9.224;2023-04-23T02:04:21;11.38;;;8.40;;
50128;SDS011;36026;45.478;9.224;2023-04-23T02:07:23;9.45;;;6.55;;
50128;SDS011;36026;45.478;9.224;2023-04-23T02:10:26;9.48;;;6.72;;
50128;SDS011;36026;45.478;9.224;2023-04-23T02:13:28;11.57;;;6.32;;
50128;SDS011;36026;45.478;9.224;2023-04-23T02:16:30;9.00;;;6.90;;
50128;SDS011;36026;45.478;9.224;2023-04-23T02:19:31;8.68;;;6.35;;
50128;SDS011;36026;45.478;9.224;2023-04-23T02:22:35;9.60;;;6.00;;
50128;SDS011;36026;45.478;9.224;2023-04-23T02:25:38;8.63;;;5.75;;
50128;SDS011;36026;45.478;9.224;2023-04-23T02:28:40;7.33;;;5.83;;
50128;SDS011;36026;45.478;9.224;2023-04-23T02:31:41;8.30;;;5.35;;
50128;SDS011;36026;45.478;9.224;2023-04-23T02:34:43;8.23;;;5.63;;
50128;SDS011;36026;45.478;9.224;2023-04-23T02:37:45;11.23;;;5.93;;
50128;SDS011;36026;45.478;9.224;2023-04-23T02:40:48;9.52;;;5.43;;
50128;SDS011;36026;45.478;9.224;2023-04-23T02:43:49;9.47;;;5.43;;
50128;SDS011;36026;45.478;9.224;2023-04-23T02:46:51;7.82;;;5.00;;
50128;SDS011;36026;45.478;9.224;2023-04-23T02:49:53;8.27;;;5.00;;
50128;SDS011;36026;45.478;9.224;2023-04-23T02:52:54;7.72;;;5.40;;
50128;SDS011;36026;45.478;9.224;2023-04-23T02:55:57;9.13;;;5.82;;
50128;SDS011;36026;45.478;9.224;2023-04-23T02:59:00;7.95;;;5.13;;
50128;SDS011;36026;45.478;9.224;2023-04-23T03:02:01;8.45;;;4.53;;
50128;SDS011;36026;45.478;9.224;2023-04-23T03:05:03;5.72;;;4.57;;
50128;SDS011;36026;45.478;9.224;2023-04-23T03:08:06;7.32;;;4.80;;
50128;SDS011;36026;45.478;9.224;2023-04-23T03:11:09;5.75;;;4.05;;
50128;SDS011;36026;45.478;9.224;2023-04-23T03:14:11;10.40;;;3.97;;
50128;SDS011;36026;45.478;9.224;2023-04-23T03:17:12;6.45;;;3.90;;
50128;SDS011;36026;45.478;9.224;2023-04-23T03:20:14;8.52;;;4.25;;
50128;SDS011;36026;45.478;9.224;2023-04-23T03:23:15;6.10;;;3.47;;
50128;SDS011;36026;45.478;9.224;2023-04-23T03:26:18;4.72;;;3.50;;
50128;SDS011;36026;45.478;9.224;2023-04-23T03:29:20;5.53;;;4.15;;
50128;SDS011;36026;45.478;9.224;2023-04-23T03:32:22;6.85;;;4.32;;
50128;SDS011;36026;45.478;9.224;2023-04-23T03:35:23;6.32;;;3.95;;
50128;SDS011;36026;45.478;9.224;2023-04-23T03:38:25;5.70;;;4.35;;
50128;SDS011;36026;45.478;9.224;2023-04-23T03:41:28;4.38;;;3.60;;
50128;SDS011;36026;45.478;9.224;2023-04-23T03:44:30;6.10;;;4.00;;
50128;SDS011;36026;45.478;9.224;2023-04-23T03:47:31;5.97;;;3.75;;
50128;SDS011;36026;45.478;9.224;2023-04-23T03:50:33;5.78;;;4.20;;
50128;SDS011;36026;45.478;9.224;2023-04-23T03:53:39;8.48;;;4.35;;
50128;SDS011;36026;45.478;9.224;2023-04-23T03:56:42;6.55;;;4.63;;
50128;SDS011;36026;45.478;9.224;2023-04-23T03:59:44;7.77;;;4.43;;
50128;SDS011;36026;45.478;9.224;2023-04-23T04:02:45;9.25;;;5.63;;
50128;SDS011;36026;45.478;9.224;2023-04-23T04:05:47;5.82;;;4.40;;
50128;SDS011;36026;45.478;9.224;2023-04-23T04:08:49;6.10;;;4.78;;
50128;SDS011;36026;45.478;9.224;2023-04-23T04:11:52;5.68;;;4.63;;
50128;SDS011;36026;45.478;9.224;2023-04-23T04:14:53;6.88;;;4.40;;
50128;SDS011;36026;45.478;9.224;2023-04-23T04:17:55;6.60;;;4.75;;
50128;SDS011;36026;45.478;9.224;2023-04-23T04:20:57;6.35;;;4.78;;
50128;SDS011;36026;45.478;9.224;2023-04-23T04:23:58;7.78;;;4.97;;
50128;SDS011;36026;45.478;9.224;2023-04-23T04:27:02;10.48;;;4.57;;
50128;SDS011;36026;45.478;9.224;2023-04-23T04:33:07;7.63;;;5.20;;
50128;SDS011;36026;45.478;9.224;2023-04-23T04:36:09;9.32;;;4.72;;
50128;SDS011;36026;45.478;9.224;2023-04-23T04:39:10;7.70;;;5.03;;
50128;SDS011;36026;45.478;9.224;2023-04-23T04:42:15;11.52;;;5.90;;
50128;SDS011;36026;45.478;9.224;2023-04-23T04:45:17;8.15;;;5.13;;
50128;SDS011;36026;45.478;9.224;2023-04-23T04:48:18;8.98;;;5.60;;
50128;SDS011;36026;45.478;9.224;2023-04-23T04:51:20;8.48;;;6.25;;
50128;SDS011;36026;45.478;9.224;2023-04-23T04:54:22;9.27;;;6.53;;
50128;SDS011;36026;45.478;9.224;2023-04-23T04:57:25;10.50;;;5.63;;
50128;SDS011;36026;45.478;9.224;2023-04-23T05:00:27;8.70;;;5.27;;
50128;SDS011;36026;45.478;9.224;2023-04-23T05:03:29;7.97;;;5.13;;
50128;SDS011;36026;45.478;9.224;2023-04-23T05:06:31;8.32;;;5.45;;
50128;SDS011;36026;45.478;9.224;2023-04-23T05:09:33;9.38;;;5.70;;
50128;SDS011;36026;45.478;9.224;2023-04-23T05:12:36;12.90;;;6.75;;
50128;SDS011;36026;45.478;9.224;2023-04-23T05:15:40;7.55;;;5.75;;
50128;SDS011;36026;45.478;9.224;2023-04-23T05:18:42;9.52;;;7.10;;
50128;SDS011;36026;45.478;9.224;2023-04-23T05:21:43;10.48;;;7.05;;
50128;SDS011;36026;45.478;9.224;2023-04-23T05:24:45;9.18;;;6.75;;
50128;SDS011;36026;45.478;9.224;2023-04-23T05:27:48;9.45;;;8.13;;
50128;SDS011;36026;45.478;9.224;2023-04-23T05:30:50;9.30;;;7.43;;
50128;SDS011;36026;45.478;9.224;2023-04-23T05:33:51;11.40;;;8.32;;
50128;SDS011;36026;45.478;9.224;2023-04-23T05:36:53;11.75;;;8.07;;
50128;SDS011;36026;45.478;9.224;2023-04-23T05:39:55;12.30;;;7.70;;
50128;SDS011;36026;45.478;9.224;2023-04-23T05:42:58;11.75;;;8.48;;
50128;SDS011;36026;45.478;9.224;2023-04-23T05:46:00;14.10;;;8.67;;
50128;SDS011;36026;45.478;9.224;2023-04-23T05:49:03;13.30;;;8.23;;
50128;SDS011;36026;45.478;9.224;2023-04-23T05:52:05;14.27;;;8.65;;
50128;SDS011;36026;45.478;9.224;2023-04-23T05:55:07;12.48;;;7.93;;
50128;SDS011;36026;45.478;9.224;2023-04-23T05:58:11;8.10;;;6.45;;
50128;SDS011;36026;45.478;9.224;2023-04-23T06:01:12;8.70;;;6.20;;
50128;SDS011;36026;45.478;9.224;2023-04-23T06:04:14;9.95;;;6.65;;
50128;SDS011;36026;45.478;9.224;2023-04-23T06:07:16;8.02;;;6.47;;
50128;SDS011;36026;45.478;9.224;2023-04-23T06:10:18;8.90;;;6.00;;
50128;SDS011;36026;45.478;9.224;2023-04-23T06:13:22;7.15;;;5.78;;
50128;SDS011;36026;45.478;9.224;2023-04-23T06:16:24;6.75;;;5.18;;
50128;SDS011;36026;45.478;9.224;2023-04-23T06:19:25;7.07;;;5.38;;
50128;SDS011;36026;45.478;9.224;2023-04-23T06:22:27;8.60;;;5.43;;
50128;SDS011;36026;45.478;9.224;2023-04-23T06:25:28;8.25;;;5.43;;
50128;SDS011;36026;45.478;9.224;2023-04-23T06:28:31;7.72;;;5.95;;
50128;SDS011;36026;45.478;9.224;2023-04-23T06:31:33;11.17;;;7.50;;
50128;SDS011;36026;45.478;9.224;2023-04-23T06:34:35;10.32;;;7.72;;
50128;SDS011;36026;45.478;9.224;2023-04-23T06:37:36;12.40;;;7.50;;
50128;SDS011;36026;45.478;9.224;2023-04-23T06:40:38;8.43;;;6.82;;
50128;SDS011;36026;45.478;9.224;2023-04-23T06:43:41;7.35;;;5.72;;
50128;SDS011;36026;45.478;9.224;2023-04-23T06:46:44;7.82;;;5.78;;
50128;SDS011;36026;45.478;9.224;2023-04-23T06:49:46;5.57;;;3.47;;
50128;SDS011;36026;45.478;9.224;2023-04-23T06:52:48;4.13;;;3.00;;
50128;SDS011;36026;45.478;9.224;2023-04-23T06:55:49;5.43;;;2.70;;
50128;SDS011;36026;45.478;9.224;2023-04-23T06:58:53;5.57;;;3.67;;
50128;SDS011;36026;45.478;9.224;2023-04-23T07:01:54;3.00;;;2.38;;
50128;SDS011;36026;45.478;9.224;2023-04-23T07:04:56;4.38;;;2.65;;
50128;SDS011;36026;45.478;9.224;2023-04-23T07:07:58;3.55;;;2.47;;
50128;SDS011;36026;45.478;9.224;2023-04-23T07:11:00;3.65;;;2.72;;
50128;SDS011;36026;45.478;9.224;2023-04-23T07:14:03;5.10;;;2.63;;
50128;SDS011;36026;45.478;9.224;2023-04-23T07:17:05;3.75;;;2.75;;
50128;SDS011;36026;45.478;9.224;2023-04-23T07:20:07;3.80;;;2.90;;
50128;SDS011;36026;45.478;9.224;2023-04-23T07:23:09;4.95;;;2.80;;
50128;SDS011;36026;45.478;9.224;2023-04-23T07:26:11;5.20;;;2.80;;
50128;SDS011;36026;45.478;9.224;2023-04-23T07:29:14;4.78;;;3.13;;
50128;SDS011;36026;45.478;9.224;2023-04-23T07:32:16;4.40;;;2.33;;
50128;SDS011;36026;45.478;9.224;2023-04-23T07:35:18;3.90;;;2.72;;
50128;SDS011;36026;45.478;9.224;2023-04-23T07:38:19;3.20;;;2.50;;
50128;SDS011;36026;45.478;9.224;2023-04-23T07:41:21;3.22;;;2.47;;
50128;SDS011;36026;45.478;9.224;2023-04-23T07:44:24;4.43;;;2.80;;
50128;SDS011;36026;45.478;9.224;2023-04-23T07:47:26;4.45;;;2.40;;
50128;SDS011;36026;45.478;9.224;2023-04-23T07:50:28;2.72;;;1.92;;
50128;SDS011;36026;45.478;9.224;2023-04-23T07:53:29;3.80;;;2.60;;
50128;SDS011;36026;45.478;9.224;2023-04-23T07:56:31;3.05;;;2.05;;
50128;SDS011;36026;45.478;9.224;2023-04-23T07:59:34;3.30;;;2.33;;
50128;SDS011;36026;45.478;9.224;2023-04-23T08:02:38;3.30;;;2.50;;
50128;SDS011;36026;45.478;9.224;2023-04-23T08:05:39;4.03;;;2.42;;
50128;SDS011;36026;45.478;9.224;2023-04-23T08:08:41;2.97;;;2.20;;
50128;SDS011;36026;45.478;9.224;2023-04-23T08:11:43;5.10;;;1.75;;
50128;SDS011;36026;45.478;9.224;2023-04-23T08:14:46;4.50;;;2.10;;
50128;SDS011;36026;45.478;9.224;2023-04-23T08:17:49;2.65;;;1.60;;
50128;SDS011;36026;45.478;9.224;2023-04-23T08:20:52;2.92;;;1.90;;
50128;SDS011;36026;45.478;9.224;2023-04-23T08:26:56;2.33;;;1.90;;
50128;SDS011;36026;45.478;9.224;2023-04-23T08:29:59;2.33;;;1.73;;
50128;SDS011;36026;45.478;9.224;2023-04-23T08:33:01;2.33;;;1.75;;
50128;SDS011;36026;45.478;9.224;2023-04-23T08:36:03;1.98;;;1.50;;
50128;SDS011;36026;45.478;9.224;2023-04-23T08:39:05;2.25;;;1.67;;
50128;SDS011;36026;45.478;9.224;2023-04-23T08:42:09;3.80;;;1.75;;
50128;SDS011;36026;45.478;9.224;2023-04-23T08:45:13;4.32;;;1.50;;
50128;SDS011;36026;45.478;9.224;2023-04-23T08:48:15;2.40;;;1.50;;
50128;SDS011;36026;45.478;9.224;2023-04-23T08:51:17;2.00;;;1.75;;
50128;SDS011;36026;45.478;9.224;2023-04-23T08:54:21;4.20;;;2.67;;
50128;SDS011;36026;45.478;9.224;2023-04-23T08:57:26;235.63;;;215.68;;
50128;SDS011;36026;45.478;9.224;2023-04-23T09:00:29;521.65;;;471.52;;
50128;SDS011;36026;45.478;9.224;2023-04-23T09:03:31;516.17;;;470.50;;
50128;SDS011;36026;45.478;9.224;2023-04-23T09:06:33;5.35;;;3.47;;
50128;SDS011;36026;45.478;9.224;2023-04-23T09:09:35;3.75;;;1.98;;
50128;SDS011;36026;45.478;9.224;2023-04-23T09:12:38;2.45;;;1.85;;
50128;SDS011;36026;45.478;9.224;2023-04-23T09:15:42;5.07;;;2.03;;
50128;SDS011;36026;45.478;9.224;2023-04-23T09:18:44;4.15;;;2.47;;
50128;SDS011;36026;45.478;9.224;2023-04-23T09:21:46;2.92;;;1.73;;
50128;SDS011;36026;45.478;9.224;2023-04-23T09:24:53;2.92;;;2.05;;
50128;SDS011;36026;45.478;9.224;2023-04-23T09:27:54;3.25;;;2.45;;
50128;SDS011;36026;45.478;9.224;2023-04-23T09:31:00;2.63;;;1.92;;
50128;SDS011;36026;45.478;9.224;2023-04-23T09:34:02;3.72;;;2.67;;
50128;SDS011;36026;45.478;9.224;2023-04-23T09:37:04;3.85;;;2.42;;
50128;SDS011;36026;45.478;9.224;2023-04-23T09:40:07;5.43;;;2.85;;
50128;SDS011;36026;45.478;9.224;2023-04-23T09:43:09;3.73;;;1.93;;
50128;SDS011;36026;45.478;9.224;2023-04-23T09:46:12;3.00;;;2.10;;
50128;SDS011;36026;45.478;9.224;2023-04-23T09:49:14;2.30;;;1.63;;
50128;SDS011;36026;45.478;9.224;2023-04-23T09:52:16;6.40;;;2.35;;
50128;SDS011;36026;45.478;9.224;2023-04-23T09:55:25;4.80;;;2.40;;
50128;SDS011;36026;45.478;9.224;2023-04-23T09:58:29;3.30;;;2.22;;
50128;SDS011;36026;45.478;9.224;2023-04-23T10:01:32;3.30;;;2.53;;
50128;SDS011;36026;45.478;9.224;2023-04-23T10:04:34;4.72;;;2.75;;
50128;SDS011;36026;45.478;9.224;2023-04-23T10:07:35;6.10;;;2.33;;
50128;SDS011;36026;45.478;9.224;2023-04-23T10:10:37;2.85;;;1.90;;
50128;SDS011;36026;45.478;9.224;2023-04-23T10:13:39;4.00;;;2.15;;
50128;SDS011;36026;45.478;9.224;2023-04-23T10:16:43;3.95;;;1.90;;
50128;SDS011;36026;45.478;9.224;2023-04-23T10:19:47;3.13;;;2.50;;
50128;SDS011;36026;45.478;9.224;2023-04-23T10:22:51;3.65;;;2.03;;
50128;SDS011;36026;45.478;9.224;2023-04-23T10:25:54;3.72;;;2.58;;
50128;SDS011;36026;45.478;9.224;2023-04-23T10:28:57;6.57;;;2.85;;
50128;SDS011;36026;45.478;9.224;2023-04-23T10:32:02;4.07;;;2.72;;
50128;SDS011;36026;45.478;9.224;2023-04-23T10:35:05;3.80;;;2.45;;
50128;SDS011;36026;45.478;9.224;2023-04-23T10:38:08;4.75;;;2.20;;
50128;SDS011;36026;45.478;9.224;2023-04-23T10:41:10;6.03;;;2.75;;
50128;SDS011;36026;45.478;9.224;2023-04-23T10:44:12;5.50;;;2.40;;
50128;SDS011;36026;45.478;9.224;2023-04-23T10:53:24;3.85;;;2.33;;
50128;SDS011;36026;45.478;9.224;2023-04-23T10:56:26;5.32;;;2.20;;
50128;SDS011;36026;45.478;9.224;2023-04-23T10:59:28;3.60;;;2.47;;
50128;SDS011;36026;45.478;9.224;2023-04-23T11:02:42;3.38;;;2.25;;
50128;SDS011;36026;45.478;9.224;2023-04-23T11:05:45;4.25;;;2.45;;
50128;SDS011;36026;45.478;9.224;2023-04-23T11:08:50;5.63;;;3.25;;
50128;SDS011;36026;45.478;9.224;2023-04-23T11:11:53;5.35;;;2.80;;
50128;SDS011;36026;45.478;9.224;2023-04-23T11:14:57;3.65;;;2.45;;
50128;SDS011;36026;45.478;9.224;2023-04-23T11:18:00;3.50;;;2.83;;
50128;SDS011;36026;45.478;9.224;2023-04-23T11:24:05;3.67;;;2.63;;
50128;SDS011;36026;45.478;9.224;2023-04-23T11:27:08;7.28;;;2.85;;
50128;SDS011;36026;45.478;9.224;2023-04-23T11:30:12;4.95;;;2.85;;
50128;SDS011;36026;45.478;9.224;2023-04-23T11:33:16;4.93;;;2.40;;
50128;SDS011;36026;45.478;9.224;2023-04-23T11:36:18;4.18;;;2.83;;
50128;SDS011;36026;45.478;9.224;2023-04-23T11:39:20;2.97;;;2.47;;
50128;SDS011;36026;45.478;9.224;2023-04-23T11:42:23;4.10;;;3.13;;
50128;SDS011;36026;45.478;9.224;2023-04-23T11:45:25;4.03;;;2.75;;
50128;SDS011;36026;45.478;9.224;2023-04-23T11:48:29;4.28;;;2.58;;
50128;SDS011;36026;45.478;9.224;2023-04-23T11:54:32;5.90;;;2.85;;
50128;SDS011;36026;45.478;9.224;2023-04-23T11:57:34;4.35;;;2.80;;
50128;SDS011;36026;45.478;9.224;2023-04-23T12:00:36;4.30;;;3.13;;
50128;SDS011;36026;45.478;9.224;2023-04-23T12:03:39;3.58;;;2.65;;
50128;SDS011;36026;45.478;9.224;2023-04-23T12:09:43;4.63;;;2.90;;
50128;SDS011;36026;45.478;9.224;2023-04-23T12:12:50;3.13;;;2.45;;
50128;SDS011;36026;45.478;9.224;2023-04-23T12:15:53;4.30;;;2.50;;
50128;SDS011;36026;45.478;9.224;2023-04-23T12:18:57;4.10;;;2.78;;
50128;SDS011;36026;45.478;9.224;2023-04-23T12:22:02;4.10;;;2.80;;
50128;SDS011;36026;45.478;9.224;2023-04-23T12:25:07;3.97;;;2.50;;
50128;SDS011;36026;45.478;9.224;2023-04-23T12:28:09;3.73;;;2.83;;
50128;SDS011;36026;45.478;9.224;2023-04-23T12:31:17;3.30;;;2.53;;
50128;SDS011;36026;45.478;9.224;2023-04-23T12:34:20;4.10;;;2.60;;
50128;SDS011;36026;45.478;9.224;2023-04-23T12:37:23;4.65;;;3.40;;
50128;SDS011;36026;45.478;9.224;2023-04-23T12:40:25;3.75;;;2.67;;
50128;SDS011;36026;45.478;9.224;2023-04-23T12:43:27;5.80;;;3.07;;
50128;SDS011;36026;45.478;9.224;2023-04-23T12:46:28;3.03;;;2.40;;
50128;SDS011;36026;45.478;9.224;2023-04-23T12:49:32;2.60;;;2.40;;
50128;SDS011;36026;45.478;9.224;2023-04-23T12:52:34;3.67;;;2.95;;
50128;SDS011;36026;45.478;9.224;2023-04-23T12:55:37;3.60;;;2.50;;
50128;SDS011;36026;45.478;9.224;2023-04-23T12:58:39;6.47;;;2.50;;
50128;SDS011;36026;45.478;9.224;2023-04-23T13:01:40;2.50;;;2.15;;
50128;SDS011;36026;45.478;9.224;2023-04-23T13:04:43;5.20;;;2.60;;
50128;SDS011;36026;45.478;9.224;2023-04-23T13:07:45;3.17;;;2.20;;
50128;SDS011;36026;45.478;9.224;2023-04-23T13:10:47;7.05;;;2.70;;
50128;SDS011;36026;45.478;9.224;2023-04-23T13:13:49;4.13;;;2.75;;
50128;SDS011;36026;45.478;9.224;2023-04-23T13:16:51;3.43;;;2.10;;
50128;SDS011;36026;45.478;9.224;2023-04-23T13:19:54;3.65;;;2.35;;
50128;SDS011;36026;45.478;9.224;2023-04-23T13:22:56;5.18;;;2.30;;
50128;SDS011;36026;45.478;9.224;2023-04-23T13:25:58;2.77;;;2.47;;
50128;SDS011;36026;45.478;9.224;2023-04-23T13:29:00;4.57;;;2.85;;
50128;SDS011;36026;45.478;9.224;2023-04-23T13:32:02;3.67;;;2.83;;
50128;SDS011;36026;45.478;9.224;2023-04-23T13:35:05;4.95;;;3.20;;
50128;SDS011;36026;45.478;9.224;2023-04-23T13:38:08;2.92;;;2.42;;
50128;SDS011;36026;45.478;9.224;2023-04-23T13:41:09;3.90;;;3.10;;
50128;SDS011;36026;45.478;9.224;2023-04-23T13:44:11;5.85;;;3.50;;
50128;SDS011;36026;45.478;9.224;2023-04-23T13:47:13;3.85;;;3.15;;
50128;SDS011;36026;45.478;9.224;2023-04-23T13:50:16;5.43;;;3.10;;
50128;SDS011;36026;45.478;9.224;2023-04-23T13:56:19;7.10;;;3.88;;
50128;SDS011;36026;45.478;9.224;2023-04-23T13:59:21;6.82;;;4.07;;
50128;SDS011;36026;45.478;9.224;2023-04-23T14:02:24;4.47;;;3.40;;
50128;SDS011;36026;45.478;9.224;2023-04-23T14:05:27;5.53;;;2.47;;
50128;SDS011;36026;45.478;9.224;2023-04-23T14:11:30;3.42;;;2.72;;
50128;SDS011;36026;45.478;9.224;2023-04-23T14:14:32;4.68;;;2.70;;
50128;SDS011;36026;45.478;9.224;2023-04-23T14:17:34;3.17;;;2.88;;
50128;SDS011;36026;45.478;9.224;2023-04-23T14:20:37;4.28;;;3.17;;
50128;SDS011;36026;45.478;9.224;2023-04-23T14:26:45;5.13;;;3.30;;
50128;SDS011;36026;45.478;9.224;2023-04-23T14:29:50;5.07;;;3.60;;
50128;SDS011;36026;45.478;9.224;2023-04-23T14:32:52;3.50;;;3.03;;
50128;SDS011;36026;45.478;9.224;2023-04-23T14:35:57;4.07;;;2.83;;
50128;SDS011;36026;45.478;9.224;2023-04-23T14:38:59;5.47;;;3.90;;
50128;SDS011;36026;45.478;9.224;2023-04-23T14:42:04;3.78;;;3.35;;
50128;SDS011;36026;45.478;9.224;2023-04-23T14:45:06;6.47;;;3.70;;
50128;SDS011;36026;45.478;9.224;2023-04-23T14:48:08;3.67;;;2.90;;
50128;SDS011;36026;45.478;9.224;2023-04-23T14:51:12;5.65;;;3.33;;
50128;SDS011;36026;45.478;9.224;2023-04-23T14:57:15;4.50;;;3.08;;
50128;SDS011;36026;45.478;9.224;2023-04-23T15:00:16;4.50;;;3.05;;
50128;SDS011;36026;45.478;9.224;2023-04-23T15:03:18;4.13;;;3.45;;
50128;SDS011;36026;45.478;9.224;2023-04-23T15:06:21;3.25;;;2.95;;
50128;SDS011;36026;45.478;9.224;2023-04-23T15:09:23;4.45;;;3.33;;
50128;SDS011;36026;45.478;9.224;2023-04-23T15:12:35;6.55;;;4.05;;
50128;SDS011;36026;45.478;9.224;2023-04-23T15:15:43;4.45;;;3.10;;
50128;SDS011;36026;45.478;9.224;2023-04-23T15:18:49;2.83;;;2.22;;
50128;SDS011;36026;45.478;9.224;2023-04-23T15:21:52;4.10;;;2.05;;
50128;SDS011;36026;45.478;9.224;2023-04-23T15:24:54;4.70;;;2.03;;
50128;SDS011;36026;45.478;9.224;2023-04-23T15:27:56;3.92;;;1.90;;
50128;SDS011;36026;45.478;9.224;2023-04-23T15:30:57;26.17;;;17.33;;
50128;SDS011;36026;45.478;9.224;2023-04-23T15:33:59;101.03;;;57.42;;
50128;SDS011;36026;45.478;9.224;2023-04-23T15:37:03;40.55;;;23.95;;
50128;SDS011;36026;45.478;9.224;2023-04-23T15:40:06;22.50;;;13.27;;
50128;SDS011;36026;45.478;9.224;2023-04-23T15:43:09;8.30;;;2.53;;
50128;SDS011;36026;45.478;9.224;2023-04-23T15:46:11;3.65;;;1.65;;
50128;SDS011;36026;45.478;9.224;2023-04-23T15:49:12;2.70;;;1.65;;
50128;SDS011;36026;45.478;9.224;2023-04-23T15:52:16;4.97;;;2.15;;
50128;SDS011;36026;45.478;9.224;2023-04-23T15:58:19;32.40;;;11.27;;
50128;SDS011;36026;45.478;9.224;2023-04-23T16:01:21;7.70;;;3.03;;
50128;SDS011;36026;45.478;9.224;2023-04-23T16:04:23;2.15;;;1.50;;
50128;SDS011;36026;45.478;9.224;2023-04-23T16:07:26;2.15;;;1.42;;
50128;SDS011;36026;45.478;9.224;2023-04-23T16:10:27;2.13;;;1.20;;
50128;SDS011;36026;45.478;9.224;2023-04-23T16:13:33;2.22;;;1.30;;
50128;SDS011;36026;45.478;9.224;2023-04-23T16:16:35;2.30;;;1.60;;
50128;SDS011;36026;45.478;9.224;2023-04-23T16:19:37;2.50;;;1.50;;
50128;SDS011;36026;45.478;9.224;2023-04-23T16:22:40;3.45;;;1.50;;
50128;SDS011;36026;45.478;9.224;2023-04-23T16:25:42;2.38;;;1.40;;
50128;SDS011;36026;45.478;9.224;2023-04-23T16:28:44;3.08;;;1.65;;
50128;SDS011;36026;45.478;9.224;2023-04-23T16:31:46;3.38;;;1.20;;
50128;SDS011;36026;45.478;9.224;2023-04-23T16:34:48;41.10;;;9.10;;
50128;SDS011;36026;45.478;9.224;2023-04-23T16:37:51;2.90;;;1.20;;
50128;SDS011;36026;45.478;9.224;2023-04-23T16:40:53;1.88;;;1.40;;
50128;SDS011;36026;45.478;9.224;2023-04-23T16:43:54;4.57;;;1.48;;
50128;SDS011;36026;45.478;9.224;2023-04-23T16:46:56;2.38;;;1.05;;
50128;SDS011;36026;45.478;9.224;2023-04-23T16:49:58;2.72;;;1.58;;
50128;SDS011;36026;45.478;9.224;2023-04-23T16:53:01;4.65;;;1.60;;
50128;SDS011;36026;45.478;9.224;2023-04-23T16:56:02;2.58;;;1.30;;
50128;SDS011;36026;45.478;9.224;2023-04-23T16:59:04;3.95;;;1.42;;
50128;SDS011;36026;45.478;9.224;2023-04-23T17:02:06;2.50;;;1.60;;
50128;SDS011;36026;45.478;9.224;2023-04-23T17:05:08;4.13;;;1.50;;
50128;SDS011;36026;45.478;9.224;2023-04-23T17:08:11;9.13;;;4.43;;
50128;SDS011;36026;45.478;9.224;2023-04-23T17:11:13;6.68;;;4.18;;
50128;SDS011;36026;45.478;9.224;2023-04-23T17:14:14;3.75;;;1.60;;
50128;SDS011;36026;45.478;9.224;2023-04-23T17:17:16;3.90;;;1.63;;
50128;SDS011;36026;45.478;9.224;2023-04-23T17:20:18;7.97;;;5.65;;
50128;SDS011;36026;45.478;9.224;2023-04-23T17:23:22;8.88;;;2.72;;
50128;SDS011;36026;45.478;9.224;2023-04-23T17:26:24;4.70;;;1.65;;
50128;SDS011;36026;45.478;9.224;2023-04-23T17:29:25;2.80;;;1.40;;
50128;SDS011;36026;45.478;9.224;2023-04-23T17:32:27;2.42;;;1.50;;
50128;SDS011;36026;45.478;9.224;2023-04-23T17:35:29;4.55;;;1.70;;
50128;SDS011;36026;45.478;9.224;2023-04-23T17:38:32;4.05;;;1.88;;
50128;SDS011;36026;45.478;9.224;2023-04-23T17:44:36;3.92;;;1.60;;
50128;SDS011;36026;45.478;9.224;2023-04-23T17:47:37;8.95;;;1.90;;
50128;SDS011;36026;45.478;9.224;2023-04-23T17:50:40;3.22;;;1.60;;
50128;SDS011;36026;45.478;9.224;2023-04-23T17:53:43;2.28;;;1.52;;
50128;SDS011;36026;45.478;9.224;2023-04-23T17:56:47;3.20;;;2.00;;
50128;SDS011;36026;45.478;9.224;2023-04-23T17:59:48;5.07;;;1.70;;
50128;SDS011;36026;45.478;9.224;2023-04-23T18:02:50;2.78;;;1.73;;
50128;SDS011;36026;45.478;9.224;2023-04-23T18:05:52;2.78;;;1.67;;
50128;SDS011;36026;45.478;9.224;2023-04-23T18:08:55;6.38;;;2.13;;
50128;SDS011;36026;45.478;9.224;2023-04-23T18:11:57;7.78;;;2.08;;
50128;SDS011;36026;45.478;9.224;2023-04-23T18:14:59;16.95;;;15.75;;
50128;SDS011;36026;45.478;9.224;2023-04-23T18:18:01;7.95;;;5.72;;
50128;SDS011;36026;45.478;9.224;2023-04-23T18:21:03;4.22;;;2.05;;
50128;SDS011;36026;45.478;9.224;2023-04-23T18:24:06;63.45;;;22.65;;
50128;SDS011;36026;45.478;9.224;2023-04-23T18:27:17;5.20;;;2.15;;
50128;SDS011;36026;45.478;9.224;2023-04-23T18:30:19;65.32;;;54.63;;
50128;SDS011;36026;45.478;9.224;2023-04-23T18:33:24;3.28;;;2.05;;
50128;SDS011;36026;45.478;9.224;2023-04-23T18:36:32;6.68;;;2.97;;
50128;SDS011;36026;45.478;9.224;2023-04-23T18:39:36;5.70;;;1.77;;
50128;SDS011;36026;45.478;9.224;2023-04-23T18:42:39;119.57;;;107.57;;
50128;SDS011;36026;45.478;9.224;2023-04-23T18:45:41;17.23;;;15.52;;
50128;SDS011;36026;45.478;9.224;2023-04-23T18:48:49;147.93;;;133.55;;
50128;SDS011;36026;45.478;9.224;2023-04-23T18:51:52;81.30;;;70.32;;
50128;SDS011;36026;45.478;9.224;2023-04-23T18:54:55;24.65;;;13.10;;